sensor_id;sensor_type;location;lat;lon;timestamp;temperature;humidity
17033;DHT22;63208;52.178;21.016;2023-07-20T00:00:19;19.00;99.90
17033;DHT22;63208;52.178;21.016;2023-07-20T00:02:49;19.10;99.90
17033;DHT22;63208;52.178;21.016;2023-07-20T00:05:16;19.10;99.90
17033;DHT22;63208;52.178;21.016;2023-07-20T00:07:43;19.10;99.90
17033;DHT22;63208;52.178;21.016;2023-07-20T00:10:10;19.20;99.90
17033;DHT22;63208;52.178;21.016;2023-07-20T00:12:38;19.20;99.90
17033;DHT22;63208;52.178;21.016;2023-07-20T00:15:05;19.20;99.90
17033;DHT22;63208;52.178;21.016;2023-07-20T00:17:32;19.20;99.90
17033;DHT22;63208;52.178;21.016;2023-07-20T00:19:59;19.30;99.90
17033;DHT22;63208;52.178;21.016;2023-07-20T00:22:26;19.30;99.90
17033;DHT22;63208;52.178;21.016;2023-07-20T00:24:53;19.20;99.90
17033;DHT22;63208;52.178;21.016;2023-07-20T00:27:19;19.10;99.90
17033;DHT22;63208;52.178;21.016;2023-07-20T00:29:47;19.10;99.90
17033;DHT22;63208;52.178;21.016;2023-07-20T00:32:14;19.00;99.90
17033;DHT22;63208;52.178;21.016;2023-07-20T00:34:41;19.10;99.90
17033;DHT22;63208;52.178;21.016;2023-07-20T00:37:08;19.10;99.90
17033;DHT22;63208;52.178;21.016;2023-07-20T00:39:34;19.00;99.90
17033;DHT22;63208;52.178;21.016;2023-07-20T00:42:01;19.00;99.90
17033;DHT22;63208;52.178;21.016;2023-07-20T00:44:28;19.00;99.90
17033;DHT22;63208;52.178;21.016;2023-07-20T00:46:56;19.00;99.90
17033;DHT22;63208;52.178;21.016;2023-07-20T00:49:23;19.10;99.90
17033;DHT22;63208;52.178;21.016;2023-07-20T00:51:50;19.10;99.90
17033;DHT22;63208;52.178;21.016;2023-07-20T00:54:18;19.10;99.90
17033;DHT22;63208;52.178;21.016;2023-07-20T00:56:45;19.10;99.90
17033;DHT22;63208;52.178;21.016;2023-07-20T00:59:13;19.10;99.90
17033;DHT22;63208;52.178;21.016;2023-07-20T01:01:40;19.10;99.90
17033;DHT22;63208;52.178;21.016;2023-07-20T01:04:08;19.20;99.90
17033;DHT22;63208;52.178;21.016;2023-07-20T01:06:41;19.20;99.90
17033;DHT22;63208;52.178;21.016;2023-07-20T01:09:15;19.20;99.90
17033;DHT22;63208;52.178;21.016;2023-07-20T01:11:51;19.20;99.90
17033;DHT22;63208;52.178;21.016;2023-07-20T01:14:21;19.20;99.90
17033;DHT22;63208;52.178;21.016;2023-07-20T01:16:48;19.20;99.90
17033;DHT22;63208;52.178;21.016;2023-07-20T01:19:19;19.20;99.90
17033;DHT22;63208;52.178;21.016;2023-07-20T01:21:49;19.20;99.90
17033;DHT22;63208;52.178;21.016;2023-07-20T01:27:34;19.20;99.90
17033;DHT22;63208;52.178;21.016;2023-07-20T01:30:37;19.20;99.90
17033;DHT22;63208;52.178;21.016;2023-07-20T01:33:09;19.20;99.90
17033;DHT22;63208;52.178;21.016;2023-07-20T01:35:36;19.20;99.90
17033;DHT22;63208;52.178;21.016;2023-07-20T01:38:04;19.20;99.90
17033;DHT22;63208;52.178;21.016;2023-07-20T01:40:31;19.10;99.90
17033;DHT22;63208;52.178;21.016;2023-07-20T01:42:58;19.10;99.90
17033;DHT22;63208;52.178;21.016;2023-07-20T01:45:25;19.00;99.90
17033;DHT22;63208;52.178;21.016;2023-07-20T01:47:52;19.10;99.90
17033;DHT22;63208;52.178;21.016;2023-07-20T01:50:20;19.10;99.90
17033;DHT22;63208;52.178;21.016;2023-07-20T01:52:47;19.10;99.90
17033;DHT22;63208;52.178;21.016;2023-07-20T01:55:14;19.20;99.90
17033;DHT22;63208;52.178;21.016;2023-07-20T01:57:41;19.10;99.90
17033;DHT22;63208;52.178;21.016;2023-07-20T02:00:09;19.10;99.90
17033;DHT22;63208;52.178;21.016;2023-07-20T02:02:37;19.10;99.90
17033;DHT22;63208;52.178;21.016;2023-07-20T02:05:04;19.00;99.90
17033;DHT22;63208;52.178;21.016;2023-07-20T02:07:32;19.10;99.90
17033;DHT22;63208;52.178;21.016;2023-07-20T02:09:59;19.00;99.90
17033;DHT22;63208;52.178;21.016;2023-07-20T02:12:26;19.10;99.90
17033;DHT22;63208;52.178;21.016;2023-07-20T02:14:53;19.20;99.90
17033;DHT22;63208;52.178;21.016;2023-07-20T02:17:20;19.10;99.90
17033;DHT22;63208;52.178;21.016;2023-07-20T02:19:46;19.10;99.90
17033;DHT22;63208;52.178;21.016;2023-07-20T02:22:15;19.10;99.90
17033;DHT22;63208;52.178;21.016;2023-07-20T02:24:43;19.10;99.90
17033;DHT22;63208;52.178;21.016;2023-07-20T02:27:10;19.10;99.90
17033;DHT22;63208;52.178;21.016;2023-07-20T02:29:37;19.10;99.90
17033;DHT22;63208;52.178;21.016;2023-07-20T02:32:05;19.00;99.90
17033;DHT22;63208;52.178;21.016;2023-07-20T02:34:32;19.00;99.90
17033;DHT22;63208;52.178;21.016;2023-07-20T02:36:58;19.00;99.90
17033;DHT22;63208;52.178;21.016;2023-07-20T02:39:27;19.00;99.90
17033;DHT22;63208;52.178;21.016;2023-07-20T02:41:55;19.00;99.90
17033;DHT22;63208;52.178;21.016;2023-07-20T02:44:22;19.00;99.90
17033;DHT22;63208;52.178;21.016;2023-07-20T02:46:49;18.90;99.90
17033;DHT22;63208;52.178;21.016;2023-07-20T02:49:16;18.90;99.90
17033;DHT22;63208;52.178;21.016;2023-07-20T02:51:43;18.90;99.90
17033;DHT22;63208;52.178;21.016;2023-07-20T02:54:10;18.90;99.90
17033;DHT22;63208;52.178;21.016;2023-07-20T02:56:37;18.90;99.90
17033;DHT22;63208;52.178;21.016;2023-07-20T02:59:05;18.80;99.90
17033;DHT22;63208;52.178;21.016;2023-07-20T03:01:31;18.90;99.90
17033;DHT22;63208;52.178;21.016;2023-07-20T03:03:58;18.80;99.90
17033;DHT22;63208;52.178;21.016;2023-07-20T03:06:25;18.80;99.90
17033;DHT22;63208;52.178;21.016;2023-07-20T03:08:52;18.80;99.90
17033;DHT22;63208;52.178;21.016;2023-07-20T03:11:19;18.90;99.90
17033;DHT22;63208;52.178;21.016;2023-07-20T03:13:47;18.80;99.90
17033;DHT22;63208;52.178;21.016;2023-07-20T03:16:17;18.90;99.90
17033;DHT22;63208;52.178;21.016;2023-07-20T03:18:44;18.90;99.90
17033;DHT22;63208;52.178;21.016;2023-07-20T03:21:11;18.90;99.90
17033;DHT22;63208;52.178;21.016;2023-07-20T03:23:38;18.90;99.90
17033;DHT22;63208;52.178;21.016;2023-07-20T03:26:05;18.80;99.90
17033;DHT22;63208;52.178;21.016;2023-07-20T03:28:33;18.80;99.90
17033;DHT22;63208;52.178;21.016;2023-07-20T03:31:00;18.90;99.90
17033;DHT22;63208;52.178;21.016;2023-07-20T03:33:29;19.00;99.90
17033;DHT22;63208;52.178;21.016;2023-07-20T03:35:56;18.90;99.90
17033;DHT22;63208;52.178;21.016;2023-07-20T03:38:25;18.90;99.90
17033;DHT22;63208;52.178;21.016;2023-07-20T03:40:52;18.90;99.90
17033;DHT22;63208;52.178;21.016;2023-07-20T03:43:21;18.80;99.90
17033;DHT22;63208;52.178;21.016;2023-07-20T03:45:48;18.80;99.90
17033;DHT22;63208;52.178;21.016;2023-07-20T03:48:16;18.80;99.90
17033;DHT22;63208;52.178;21.016;2023-07-20T03:50:45;18.80;99.90
17033;DHT22;63208;52.178;21.016;2023-07-20T03:53:12;18.70;99.90
17033;DHT22;63208;52.178;21.016;2023-07-20T03:55:39;18.60;99.90
17033;DHT22;63208;52.178;21.016;2023-07-20T03:58:07;18.50;99.90
17033;DHT22;63208;52.178;21.016;2023-07-20T04:00:34;18.90;99.90
17033;DHT22;63208;52.178;21.016;2023-07-20T04:03:01;18.40;99.90
17033;DHT22;63208;52.178;21.016;2023-07-20T04:05:28;18.40;99.90
17033;DHT22;63208;52.178;21.016;2023-07-20T04:07:56;18.30;99.90
17033;DHT22;63208;52.178;21.016;2023-07-20T04:12:50;18.20;99.90
17033;DHT22;63208;52.178;21.016;2023-07-20T04:15:17;18.10;99.90
17033;DHT22;63208;52.178;21.016;2023-07-20T04:17:45;18.10;99.90
17033;DHT22;63208;52.178;21.016;2023-07-20T04:20:11;17.90;99.90
17033;DHT22;63208;52.178;21.016;2023-07-20T04:22:38;17.90;99.90
17033;DHT22;63208;52.178;21.016;2023-07-20T04:30:02;17.00;99.90
17033;DHT22;63208;52.178;21.016;2023-07-20T04:37:26;16.80;99.90
17033;DHT22;63208;52.178;21.016;2023-07-20T04:39:53;17.10;99.90
17033;DHT22;63208;52.178;21.016;2023-07-20T04:42:20;16.90;99.90
17033;DHT22;63208;52.178;21.016;2023-07-20T04:44:46;16.80;99.90
17033;DHT22;63208;52.178;21.016;2023-07-20T04:47:13;16.70;99.90
17033;DHT22;63208;52.178;21.016;2023-07-20T04:49:40;16.70;99.90
17033;DHT22;63208;52.178;21.016;2023-07-20T04:52:07;16.70;99.90
17033;DHT22;63208;52.178;21.016;2023-07-20T04:54:34;16.70;99.90
17033;DHT22;63208;52.178;21.016;2023-07-20T04:57:01;16.70;99.90
17033;DHT22;63208;52.178;21.016;2023-07-20T04:59:29;16.60;99.90
17033;DHT22;63208;52.178;21.016;2023-07-20T05:01:56;16.70;99.90
17033;DHT22;63208;52.178;21.016;2023-07-20T05:04:22;16.60;99.90
17033;DHT22;63208;52.178;21.016;2023-07-20T05:09:19;16.60;99.90
17033;DHT22;63208;52.178;21.016;2023-07-20T05:26:30;17.00;99.90
17033;DHT22;63208;52.178;21.016;2023-07-20T05:28:59;17.00;99.90
17033;DHT22;63208;52.178;21.016;2023-07-20T05:33:57;17.00;99.90
17033;DHT22;63208;52.178;21.016;2023-07-20T05:38:51;17.20;99.90
17033;DHT22;63208;52.178;21.016;2023-07-20T05:41:18;17.20;99.90
17033;DHT22;63208;52.178;21.016;2023-07-20T05:43:45;17.30;99.90
17033;DHT22;63208;52.178;21.016;2023-07-20T05:46:12;17.30;99.90
17033;DHT22;63208;52.178;21.016;2023-07-20T05:48:38;17.40;99.90
17033;DHT22;63208;52.178;21.016;2023-07-20T05:51:07;17.50;99.90
17033;DHT22;63208;52.178;21.016;2023-07-20T07:02:29;17.80;99.90
17033;DHT22;63208;52.178;21.016;2023-07-20T07:07:23;17.80;99.90
17033;DHT22;63208;52.178;21.016;2023-07-20T07:09:50;17.90;99.90
17033;DHT22;63208;52.178;21.016;2023-07-20T07:12:17;18.00;99.90
17033;DHT22;63208;52.178;21.016;2023-07-20T07:14:43;17.90;99.90
17033;DHT22;63208;52.178;21.016;2023-07-20T08:01:33;17.80;99.90
17033;DHT22;63208;52.178;21.016;2023-07-20T08:43:23;17.30;99.90
17033;DHT22;63208;52.178;21.016;2023-07-20T08:45:52;17.40;99.90
17033;DHT22;63208;52.178;21.016;2023-07-20T08:48:20;17.00;99.90
17033;DHT22;63208;52.178;21.016;2023-07-20T08:50:49;17.00;99.90
17033;DHT22;63208;52.178;21.016;2023-07-20T08:53:20;17.10;99.90
17033;DHT22;63208;52.178;21.016;2023-07-20T08:55:50;15.30;99.90
17033;DHT22;63208;52.178;21.016;2023-07-20T09:18:58;17.00;99.90
17033;DHT22;63208;52.178;21.016;2023-07-20T09:21:29;16.90;99.90
17033;DHT22;63208;52.178;21.016;2023-07-20T09:23:56;16.80;99.90
17033;DHT22;63208;52.178;21.016;2023-07-20T09:26:23;16.90;99.90
17033;DHT22;63208;52.178;21.016;2023-07-20T09:36:17;17.40;99.90
17033;DHT22;63208;52.178;21.016;2023-07-20T09:38:44;17.20;99.90
17033;DHT22;63208;52.178;21.016;2023-07-20T09:41:13;17.40;99.90
17033;DHT22;63208;52.178;21.016;2023-07-20T09:43:41;17.50;99.90
17033;DHT22;63208;52.178;21.016;2023-07-20T09:46:15;17.40;99.90
17033;DHT22;63208;52.178;21.016;2023-07-20T09:51:21;17.30;99.90
17033;DHT22;63208;52.178;21.016;2023-07-20T10:01:13;17.50;99.90
17033;DHT22;63208;52.178;21.016;2023-07-20T10:03:45;17.70;99.90
17033;DHT22;63208;52.178;21.016;2023-07-20T10:06:15;17.80;99.90
17033;DHT22;63208;52.178;21.016;2023-07-20T10:18:46;17.30;99.90
17033;DHT22;63208;52.178;21.016;2023-07-20T10:26:13;17.70;99.90
17033;DHT22;63208;52.178;21.016;2023-07-20T10:28:44;17.80;99.90
17033;DHT22;63208;52.178;21.016;2023-07-20T10:36:12;17.40;99.90
17033;DHT22;63208;52.178;21.016;2023-07-20T10:38:40;17.40;99.90
17033;DHT22;63208;52.178;21.016;2023-07-20T10:41:18;17.50;99.90
17033;DHT22;63208;52.178;21.016;2023-07-20T10:46:12;17.70;99.90
17033;DHT22;63208;52.178;21.016;2023-07-20T10:49:01;17.90;99.90
17033;DHT22;63208;52.178;21.016;2023-07-20T10:51:28;17.90;99.90
17033;DHT22;63208;52.178;21.016;2023-07-20T10:53:55;18.10;99.90
17033;DHT22;63208;52.178;21.016;2023-07-20T10:56:26;18.10;99.90
17033;DHT22;63208;52.178;21.016;2023-07-20T10:58:58;18.40;99.90
17033;DHT22;63208;52.178;21.016;2023-07-20T11:04:37;18.30;99.90
17033;DHT22;63208;52.178;21.016;2023-07-20T11:07:05;18.40;99.90
17033;DHT22;63208;52.178;21.016;2023-07-20T11:09:34;18.80;99.90
17033;DHT22;63208;52.178;21.016;2023-07-20T11:12:11;18.70;99.90
17033;DHT22;63208;52.178;21.016;2023-07-20T11:14:41;18.70;99.90
17033;DHT22;63208;52.178;21.016;2023-07-20T11:19:39;18.40;99.90
17033;DHT22;63208;52.178;21.016;2023-07-20T11:22:07;18.50;99.90
17033;DHT22;63208;52.178;21.016;2023-07-20T11:24:40;18.60;99.90
17033;DHT22;63208;52.178;21.016;2023-07-20T11:27:09;18.80;99.90
17033;DHT22;63208;52.178;21.016;2023-07-20T11:40:31;19.40;99.90
17033;DHT22;63208;52.178;21.016;2023-07-20T11:42:59;19.60;99.90
17033;DHT22;63208;52.178;21.016;2023-07-20T11:45:29;19.70;99.90
17033;DHT22;63208;52.178;21.016;2023-07-20T11:47:59;19.70;99.90
17033;DHT22;63208;52.178;21.016;2023-07-20T11:50:25;19.60;99.90
17033;DHT22;63208;52.178;21.016;2023-07-20T11:52:52;19.50;99.90
17033;DHT22;63208;52.178;21.016;2023-07-20T11:55:19;19.90;99.90
17033;DHT22;63208;52.178;21.016;2023-07-20T11:58:03;20.00;99.90
17033;DHT22;63208;52.178;21.016;2023-07-20T12:00:38;20.20;99.90
17033;DHT22;63208;52.178;21.016;2023-07-20T12:03:06;20.40;99.90
17033;DHT22;63208;52.178;21.016;2023-07-20T12:05:33;20.10;99.90
17033;DHT22;63208;52.178;21.016;2023-07-20T12:08:00;20.00;99.90
17033;DHT22;63208;52.178;21.016;2023-07-20T12:10:28;20.10;99.90
17033;DHT22;63208;52.178;21.016;2023-07-20T12:13:01;20.00;99.90
17033;DHT22;63208;52.178;21.016;2023-07-20T12:20:27;19.80;99.90
17033;DHT22;63208;52.178;21.016;2023-07-20T12:22:56;20.70;99.90
17033;DHT22;63208;52.178;21.016;2023-07-20T12:27:50;20.40;99.90
17033;DHT22;63208;52.178;21.016;2023-07-20T12:30:17;20.00;99.90
17033;DHT22;63208;52.178;21.016;2023-07-20T12:32:45;20.00;99.90
17033;DHT22;63208;52.178;21.016;2023-07-20T12:35:12;20.20;99.90
17033;DHT22;63208;52.178;21.016;2023-07-20T12:37:40;20.20;99.90
17033;DHT22;63208;52.178;21.016;2023-07-20T12:40:08;19.80;99.90
17033;DHT22;63208;52.178;21.016;2023-07-20T12:42:37;19.80;99.90
17033;DHT22;63208;52.178;21.016;2023-07-20T12:45:07;19.80;99.90
17033;DHT22;63208;52.178;21.016;2023-07-20T12:47:34;19.70;99.90
17033;DHT22;63208;52.178;21.016;2023-07-20T12:50:03;19.70;99.90
17033;DHT22;63208;52.178;21.016;2023-07-20T12:52:31;19.90;99.90
17033;DHT22;63208;52.178;21.016;2023-07-20T12:54:58;20.00;99.90
17033;DHT22;63208;52.178;21.016;2023-07-20T12:57:26;20.00;99.90
17033;DHT22;63208;52.178;21.016;2023-07-20T12:59:53;20.00;99.90
17033;DHT22;63208;52.178;21.016;2023-07-20T13:02:20;20.00;99.90
17033;DHT22;63208;52.178;21.016;2023-07-20T13:04:46;20.00;99.90
17033;DHT22;63208;52.178;21.016;2023-07-20T13:07:15;20.10;99.90
17033;DHT22;63208;52.178;21.016;2023-07-20T13:12:09;20.00;99.90
17033;DHT22;63208;52.178;21.016;2023-07-20T13:14:35;19.90;99.90
17033;DHT22;63208;52.178;21.016;2023-07-20T13:17:02;19.90;99.90
17033;DHT22;63208;52.178;21.016;2023-07-20T13:19:29;20.00;99.90
17033;DHT22;63208;52.178;21.016;2023-07-20T13:22:10;20.00;99.90
17033;DHT22;63208;52.178;21.016;2023-07-20T13:24:56;21.20;99.90
17033;DHT22;63208;52.178;21.016;2023-07-20T13:33:38;20.20;99.90
17033;DHT22;63208;52.178;21.016;2023-07-20T13:36:05;20.80;99.90
17033;DHT22;63208;52.178;21.016;2023-07-20T13:41:01;21.40;99.90
17033;DHT22;63208;52.178;21.016;2023-07-20T13:45:54;21.30;99.90
17033;DHT22;63208;52.178;21.016;2023-07-20T13:48:21;21.20;99.90
17033;DHT22;63208;52.178;21.016;2023-07-20T13:50:48;20.80;99.90
17033;DHT22;63208;52.178;21.016;2023-07-20T13:53:16;20.40;99.90
17033;DHT22;63208;52.178;21.016;2023-07-20T13:55:43;20.40;99.90
17033;DHT22;63208;52.178;21.016;2023-07-20T14:00:38;20.30;99.90
17033;DHT22;63208;52.178;21.016;2023-07-20T14:03:05;20.10;99.90
17033;DHT22;63208;52.178;21.016;2023-07-20T14:05:34;20.10;99.90
17033;DHT22;63208;52.178;21.016;2023-07-20T14:08:01;20.10;99.90
17033;DHT22;63208;52.178;21.016;2023-07-20T14:10:28;20.10;99.90
17033;DHT22;63208;52.178;21.016;2023-07-20T14:12:55;20.10;99.90
17033;DHT22;63208;52.178;21.016;2023-07-20T14:17:50;20.00;99.90
17033;DHT22;63208;52.178;21.016;2023-07-20T14:20:26;19.90;99.90
17033;DHT22;63208;52.178;21.016;2023-07-20T14:28:24;19.70;99.90
17033;DHT22;63208;52.178;21.016;2023-07-20T14:30:53;19.50;99.90
17033;DHT22;63208;52.178;21.016;2023-07-20T14:33:19;19.50;99.90
17033;DHT22;63208;52.178;21.016;2023-07-20T14:35:47;19.60;99.90
17033;DHT22;63208;52.178;21.016;2023-07-20T14:38:14;19.60;99.90
17033;DHT22;63208;52.178;21.016;2023-07-20T14:43:08;19.50;99.90
17033;DHT22;63208;52.178;21.016;2023-07-20T14:45:35;19.50;99.90
17033;DHT22;63208;52.178;21.016;2023-07-20T14:48:04;19.60;99.90
17033;DHT22;63208;52.178;21.016;2023-07-20T14:50:31;19.60;99.90
17033;DHT22;63208;52.178;21.016;2023-07-20T14:52:58;19.60;99.90
17033;DHT22;63208;52.178;21.016;2023-07-20T14:58:05;19.70;99.90
17033;DHT22;63208;52.178;21.016;2023-07-20T15:02:58;19.70;99.90
17033;DHT22;63208;52.178;21.016;2023-07-20T15:05:27;19.70;99.90
17033;DHT22;63208;52.178;21.016;2023-07-20T15:07:53;20.10;99.90
17033;DHT22;63208;52.178;21.016;2023-07-20T15:10:20;20.90;99.90
17033;DHT22;63208;52.178;21.016;2023-07-20T15:12:47;21.00;99.90
17033;DHT22;63208;52.178;21.016;2023-07-20T15:15:15;21.70;99.90
17033;DHT22;63208;52.178;21.016;2023-07-20T15:17:43;22.50;99.90
17033;DHT22;63208;52.178;21.016;2023-07-20T15:20:11;23.30;99.90
17033;DHT22;63208;52.178;21.016;2023-07-20T15:25:08;22.30;99.90
17033;DHT22;63208;52.178;21.016;2023-07-20T15:27:37;21.70;99.90
17033;DHT22;63208;52.178;21.016;2023-07-20T15:30:05;21.30;99.90
17033;DHT22;63208;52.178;21.016;2023-07-20T15:32:32;21.10;99.90
17033;DHT22;63208;52.178;21.016;2023-07-20T15:34:59;20.70;99.90
17033;DHT22;63208;52.178;21.016;2023-07-20T15:37:26;20.60;99.90
17033;DHT22;63208;52.178;21.016;2023-07-20T15:39:54;20.70;99.90
17033;DHT22;63208;52.178;21.016;2023-07-20T15:45:20;20.30;99.90
17033;DHT22;63208;52.178;21.016;2023-07-20T15:47:46;21.60;99.90
17033;DHT22;63208;52.178;21.016;2023-07-20T15:50:13;22.10;99.90
17033;DHT22;63208;52.178;21.016;2023-07-20T15:52:41;22.00;99.90
17033;DHT22;63208;52.178;21.016;2023-07-20T15:55:10;22.50;99.90
17033;DHT22;63208;52.178;21.016;2023-07-20T15:57:37;22.00;99.90
17033;DHT22;63208;52.178;21.016;2023-07-20T16:00:05;22.00;99.90
17033;DHT22;63208;52.178;21.016;2023-07-20T16:05:02;21.30;99.90
17033;DHT22;63208;52.178;21.016;2023-07-20T16:07:29;21.30;99.90
17033;DHT22;63208;52.178;21.016;2023-07-20T16:09:57;21.10;99.90
17033;DHT22;63208;52.178;21.016;2023-07-20T16:15:04;20.40;99.90
17033;DHT22;63208;52.178;21.016;2023-07-20T16:17:34;20.30;99.90
17033;DHT22;63208;52.178;21.016;2023-07-20T16:20:01;20.30;99.90
17033;DHT22;63208;52.178;21.016;2023-07-20T16:22:29;20.30;99.90
17033;DHT22;63208;52.178;21.016;2023-07-20T16:24:56;20.20;99.90
17033;DHT22;63208;52.178;21.016;2023-07-20T16:29:51;18.30;99.90
17033;DHT22;63208;52.178;21.016;2023-07-20T16:32:18;18.10;99.90
17033;DHT22;63208;52.178;21.016;2023-07-20T16:34:44;17.50;99.90
17033;DHT22;63208;52.178;21.016;2023-07-20T16:37:11;16.70;99.90
17033;DHT22;63208;52.178;21.016;2023-07-20T16:39:38;15.90;99.90
17033;DHT22;63208;52.178;21.016;2023-07-20T16:45:32;15.10;99.90
17033;DHT22;63208;52.178;21.016;2023-07-20T16:48:04;15.30;99.90
17033;DHT22;63208;52.178;21.016;2023-07-20T16:50:31;15.20;99.90
17033;DHT22;63208;52.178;21.016;2023-07-20T16:52:57;15.30;99.90
17033;DHT22;63208;52.178;21.016;2023-07-20T16:55:24;15.60;99.90
17033;DHT22;63208;52.178;21.016;2023-07-20T16:57:51;15.70;99.90
17033;DHT22;63208;52.178;21.016;2023-07-20T17:00:33;15.80;99.90
17033;DHT22;63208;52.178;21.016;2023-07-20T17:03:01;15.90;99.90
17033;DHT22;63208;52.178;21.016;2023-07-20T17:05:28;15.90;99.90
17033;DHT22;63208;52.178;21.016;2023-07-20T17:07:55;16.00;99.90
17033;DHT22;63208;52.178;21.016;2023-07-20T17:10:22;16.10;99.90
17033;DHT22;63208;52.178;21.016;2023-07-20T17:12:49;16.10;99.90
17033;DHT22;63208;52.178;21.016;2023-07-20T17:15:17;16.30;99.90
17033;DHT22;63208;52.178;21.016;2023-07-20T17:17:46;16.30;99.90
17033;DHT22;63208;52.178;21.016;2023-07-20T17:20:13;16.40;99.90
17033;DHT22;63208;52.178;21.016;2023-07-20T17:22:40;16.50;99.90
17033;DHT22;63208;52.178;21.016;2023-07-20T17:25:07;16.50;99.90
17033;DHT22;63208;52.178;21.016;2023-07-20T17:27:35;16.70;99.90
17033;DHT22;63208;52.178;21.016;2023-07-20T17:30:02;16.80;99.90
17033;DHT22;63208;52.178;21.016;2023-07-20T17:32:29;16.90;99.90
17033;DHT22;63208;52.178;21.016;2023-07-20T17:34:57;16.90;99.90
17033;DHT22;63208;52.178;21.016;2023-07-20T17:37:24;16.90;99.90
17033;DHT22;63208;52.178;21.016;2023-07-20T17:39:51;16.70;99.90
17033;DHT22;63208;52.178;21.016;2023-07-20T17:42:18;16.60;99.90
17033;DHT22;63208;52.178;21.016;2023-07-20T17:44:45;17.00;99.90
17033;DHT22;63208;52.178;21.016;2023-07-20T17:47:12;16.80;99.90
17033;DHT22;63208;52.178;21.016;2023-07-20T17:49:39;16.80;99.90
17033;DHT22;63208;52.178;21.016;2023-07-20T17:52:07;16.80;99.90
17033;DHT22;63208;52.178;21.016;2023-07-20T17:54:34;16.60;99.90
17033;DHT22;63208;52.178;21.016;2023-07-20T17:57:01;16.60;99.90
17033;DHT22;63208;52.178;21.016;2023-07-20T17:59:28;16.60;99.90
17033;DHT22;63208;52.178;21.016;2023-07-20T18:01:55;16.80;99.90
17033;DHT22;63208;52.178;21.016;2023-07-20T18:04:22;16.50;99.90
17033;DHT22;63208;52.178;21.016;2023-07-20T18:06:49;16.50;99.90
17033;DHT22;63208;52.178;21.016;2023-07-20T18:09:17;16.50;99.90
17033;DHT22;63208;52.178;21.016;2023-07-20T18:11:44;16.40;99.90
17033;DHT22;63208;52.178;21.016;2023-07-20T18:14:11;16.40;99.90
17033;DHT22;63208;52.178;21.016;2023-07-20T18:16:38;16.30;99.90
17033;DHT22;63208;52.178;21.016;2023-07-20T18:19:07;16.30;99.90
17033;DHT22;63208;52.178;21.016;2023-07-20T18:21:33;16.30;99.90
17033;DHT22;63208;52.178;21.016;2023-07-20T18:24:03;16.20;99.90
17033;DHT22;63208;52.178;21.016;2023-07-20T18:32:41;16.10;99.90
17033;DHT22;63208;52.178;21.016;2023-07-20T18:35:10;16.10;99.90
17033;DHT22;63208;52.178;21.016;2023-07-20T18:37:38;16.10;99.90
17033;DHT22;63208;52.178;21.016;2023-07-20T18:40:06;16.00;99.90
17033;DHT22;63208;52.178;21.016;2023-07-20T18:42:33;16.00;99.90
17033;DHT22;63208;52.178;21.016;2023-07-20T18:45:00;16.00;99.90
17033;DHT22;63208;52.178;21.016;2023-07-20T18:47:27;16.10;99.90
17033;DHT22;63208;52.178;21.016;2023-07-20T18:49:55;16.00;99.90
17033;DHT22;63208;52.178;21.016;2023-07-20T18:52:22;16.10;99.90
17033;DHT22;63208;52.178;21.016;2023-07-20T18:54:49;15.90;99.90
17033;DHT22;63208;52.178;21.016;2023-07-20T18:57:34;16.00;99.90
17033;DHT22;63208;52.178;21.016;2023-07-20T19:05:24;15.90;99.90
17033;DHT22;63208;52.178;21.016;2023-07-20T19:07:51;16.00;99.90
17033;DHT22;63208;52.178;21.016;2023-07-20T19:10:19;16.00;99.90
17033;DHT22;63208;52.178;21.016;2023-07-20T19:12:46;16.00;99.90
17033;DHT22;63208;52.178;21.016;2023-07-20T19:15:12;15.90;99.90
17033;DHT22;63208;52.178;21.016;2023-07-20T19:17:40;15.80;99.90
17033;DHT22;63208;52.178;21.016;2023-07-20T19:22:41;15.80;99.90
17033;DHT22;63208;52.178;21.016;2023-07-20T19:25:09;15.80;99.90
17033;DHT22;63208;52.178;21.016;2023-07-20T19:27:36;15.70;99.90
17033;DHT22;63208;52.178;21.016;2023-07-20T19:30:04;15.80;99.90
17033;DHT22;63208;52.178;21.016;2023-07-20T19:32:31;15.70;99.90
17033;DHT22;63208;52.178;21.016;2023-07-20T19:34:58;15.60;99.90
17033;DHT22;63208;52.178;21.016;2023-07-20T19:37:26;15.60;99.90
17033;DHT22;63208;52.178;21.016;2023-07-20T19:39:55;15.60;99.90
17033;DHT22;63208;52.178;21.016;2023-07-20T19:42:22;15.60;99.90
17033;DHT22;63208;52.178;21.016;2023-07-20T19:44:49;15.60;99.90
17033;DHT22;63208;52.178;21.016;2023-07-20T19:47:17;15.60;99.90
17033;DHT22;63208;52.178;21.016;2023-07-20T19:49:44;15.70;99.90
17033;DHT22;63208;52.178;21.016;2023-07-20T19:52:11;15.60;99.90
17033;DHT22;63208;52.178;21.016;2023-07-20T19:54:38;15.60;99.90
17033;DHT22;63208;52.178;21.016;2023-07-20T19:57:06;15.60;99.90
17033;DHT22;63208;52.178;21.016;2023-07-20T19:59:45;15.60;99.90
17033;DHT22;63208;52.178;21.016;2023-07-20T20:02:12;15.50;99.90
17033;DHT22;63208;52.178;21.016;2023-07-20T20:04:39;15.50;99.90
17033;DHT22;63208;52.178;21.016;2023-07-20T20:18:10;15.50;99.90
17033;DHT22;63208;52.178;21.016;2023-07-20T20:23:18;15.30;99.90
17033;DHT22;63208;52.178;21.016;2023-07-20T20:25:45;15.50;99.90
17033;DHT22;63208;52.178;21.016;2023-07-20T20:28:14;15.60;99.90
17033;DHT22;63208;52.178;21.016;2023-07-20T20:30:42;15.50;99.90
17033;DHT22;63208;52.178;21.016;2023-07-20T20:33:09;15.50;99.90
17033;DHT22;63208;52.178;21.016;2023-07-20T20:35:35;15.40;99.90
17033;DHT22;63208;52.178;21.016;2023-07-20T20:38:06;15.50;99.90
17033;DHT22;63208;52.178;21.016;2023-07-20T20:40:33;15.50;99.90
17033;DHT22;63208;52.178;21.016;2023-07-20T20:43:00;15.50;99.90
17033;DHT22;63208;52.178;21.016;2023-07-20T20:45:28;15.40;99.90
17033;DHT22;63208;52.178;21.016;2023-07-20T20:47:55;15.30;99.90
17033;DHT22;63208;52.178;21.016;2023-07-20T20:50:30;15.30;99.90
17033;DHT22;63208;52.178;21.016;2023-07-20T20:53:00;15.20;99.90
17033;DHT22;63208;52.178;21.016;2023-07-20T20:55:27;15.20;99.90
17033;DHT22;63208;52.178;21.016;2023-07-20T20:57:57;15.20;99.90
17033;DHT22;63208;52.178;21.016;2023-07-20T21:00:24;15.30;99.90
17033;DHT22;63208;52.178;21.016;2023-07-20T21:02:52;15.60;99.90
17033;DHT22;63208;52.178;21.016;2023-07-20T21:05:21;15.20;99.90
17033;DHT22;63208;52.178;21.016;2023-07-20T21:07:48;15.30;99.90
17033;DHT22;63208;52.178;21.016;2023-07-20T21:10:15;15.30;99.90
17033;DHT22;63208;52.178;21.016;2023-07-20T21:12:42;15.30;99.90